Time;durP1;ratioP1;P1;durP2;ratioP2;P2;SDS_P1;SDS_P2;PMS_P1;PMS_P2;Temp;Humidity;BMP_temperature;BMP_pressure;BME280_temperature;BME280_humidity;BME280_pressure;Samples;Min_cycle;Max_cycle;Signal;HPM_P1;HPM_P2
2022/10/28 00:01:13;;;;;;;7.68;3.40;;;20.30;99.90;;;;;;5112449;28;20199;-32
2022/10/28 00:03:42;;;;;;;8.63;4.03;;;20.30;99.90;;;;;;5112103;28;20726;-32
2022/10/28 00:06:12;;;;;;;6.22;3.53;;;20.20;99.90;;;;;;5112354;28;20286;-33
2022/10/28 00:08:39;;;;;;;8.52;3.58;;;20.20;99.90;;;;;;5111965;28;20644;-33
2022/10/28 00:11:12;;;;;;;8.40;3.25;;;20.20;99.90;;;;;;5112693;28;20308;-33
2022/10/28 00:13:44;;;;;;;5.65;3.33;;;20.20;99.90;;;;;;5112640;28;20600;-32
2022/10/28 00:16:17;;;;;;;10.07;3.50;;;20.20;99.90;;;;;;5112388;28;20247;-32
2022/10/28 00:18:45;;;;;;;10.05;3.85;;;20.10;99.90;;;;;;5112456;28;20252;-32
2022/10/28 00:21:18;;;;;;;7.93;3.60;;;20.10;99.90;;;;;;5111396;28;20707;-32
2022/10/28 00:23:46;;;;;;;10.48;3.60;;;20.10;99.90;;;;;;5112399;28;20269;-32
2022/10/28 00:26:16;;;;;;;12.57;4.22;;;20.00;99.90;;;;;;5111976;28;20200;-33
2022/10/28 00:28:59;;;;;;;6.95;3.78;;;20.00;99.90;;;;;;5112334;28;20206;-31
2022/10/28 00:31:28;;;;;;;11.30;3.80;;;20.00;99.90;;;;;;5112082;28;20522;-31
2022/10/28 00:33:57;;;;;;;10.43;3.97;;;19.90;99.90;;;;;;5111979;28;20248;-31
2022/10/28 00:36:27;;;;;;;7.88;3.50;;;19.90;99.90;;;;;;5110972;28;20194;-31
2022/10/28 00:38:55;;;;;;;8.88;3.70;;;19.80;99.90;;;;;;5111862;28;20202;-31
2022/10/28 00:41:34;;;;;;;8.40;3.58;;;19.80;99.90;;;;;;5112227;28;20263;-31
2022/10/28 00:44:40;;;;;;;6.78;4.10;;;19.80;99.90;;;;;;5111948;28;20195;-31
2022/10/28 00:47:37;;;;;;;9.70;3.38;;;19.80;99.90;;;;;;5111808;28;20297;-31
2022/10/28 00:50:13;;;;;;;8.57;3.42;;;19.70;99.90;;;;;;5111777;28;20221;-31
2022/10/28 00:52:44;;;;;;;7.78;3.22;;;19.70;99.90;;;;;;5111593;28;20182;-31
2022/10/28 00:55:16;;;;;;;9.20;3.40;;;19.70;99.90;;;;;;5110971;28;20531;-31
2022/10/28 00:57:45;;;;;;;9.68;3.72;;;19.70;99.90;;;;;;5108427;28;20175;-31
2022/10/28 01:00:13;;;;;;;8.23;3.60;;;19.60;99.90;;;;;;5091019;28;20663;-31
2022/10/28 01:02:46;;;;;;;7.80;3.90;;;19.60;99.90;;;;;;5094538;28;20230;-31
2022/10/28 01:05:19;;;;;;;9.87;3.87;;;19.60;99.90;;;;;;5107318;28;20248;-30
2022/10/28 01:07:48;;;;;;;7.78;3.70;;;19.60;99.90;;;;;;5096719;28;20289;-31
2022/10/28 01:10:17;;;;;;;9.77;3.42;;;19.60;99.90;;;;;;5089395;28;20223;-31
2022/10/28 01:13:05;;;;;;;10.65;4.53;;;19.60;99.90;;;;;;5104152;28;20286;-31
2022/10/28 01:16:01;;;;;;;7.05;3.40;;;19.50;99.90;;;;;;5101653;28;20286;-31
2022/10/28 01:19:10;;;;;;;8.82;3.90;;;19.50;99.90;;;;;;5110343;28;20309;-32
2022/10/28 01:21:40;;;;;;;6.15;3.25;;;19.50;99.90;;;;;;5110924;28;20236;-31
2022/10/28 01:24:27;;;;;;;7.65;3.55;;;19.40;99.90;;;;;;5110797;28;20206;-30
2022/10/28 01:27:16;;;;;;;8.63;3.50;;;19.50;99.90;;;;;;5093886;28;20684;-31
2022/10/28 01:30:13;;;;;;;8.32;3.75;;;19.40;99.90;;;;;;5110624;28;20240;-31
2022/10/28 01:33:07;;;;;;;6.72;3.83;;;19.40;99.90;;;;;;5110917;28;20274;-32
2022/10/28 01:36:01;;;;;;;8.87;3.83;;;19.40;99.90;;;;;;5109760;28;20633;-31
2022/10/28 01:38:52;;;;;;;12.23;3.67;;;19.40;99.90;;;;;;5109835;28;20274;-31
2022/10/28 01:41:28;;;;;;;10.52;3.58;;;19.40;99.90;;;;;;5110805;28;20178;-31
2022/10/28 01:44:21;;;;;;;10.35;3.22;;;19.40;99.90;;;;;;5110874;28;20278;-31
2022/10/28 01:47:03;;;;;;;8.40;3.20;;;19.30;99.90;;;;;;5107580;28;20209;-31
2022/10/28 01:49:38;;;;;;;8.55;3.20;;;19.30;99.90;;;;;;5110726;28;20682;-32
2022/10/28 01:52:11;;;;;;;7.63;3.50;;;19.30;99.90;;;;;;5110644;28;20213;-31
2022/10/28 01:54:45;;;;;;;10.07;3.72;;;19.30;99.90;;;;;;5110595;28;20600;-32
2022/10/28 01:57:17;;;;;;;9.33;3.67;;;19.30;99.90;;;;;;5110563;28;20232;-31
2022/10/28 01:59:46;;;;;;;9.73;3.30;;;19.30;99.90;;;;;;5110467;28;20622;-31
2022/10/28 02:02:17;;;;;;;9.82;3.25;;;19.30;99.90;;;;;;5109337;28;20199;-31
2022/10/28 02:04:44;;;;;;;5.63;2.92;;;19.30;99.90;;;;;;5110446;28;20193;-31
2022/10/28 02:07:12;;;;;;;7.00;3.13;;;19.30;99.90;;;;;;5110412;28;20222;-32
2022/10/28 02:10:13;;;;;;;5.83;3.20;;;19.30;99.90;;;;;;5110286;28;20217;-31
2022/10/28 02:12:40;;;;;;;7.25;3.05;;;19.30;99.90;;;;;;5110241;28;20689;-31
2022/10/28 02:15:28;;;;;;;11.87;3.60;;;19.20;99.90;;;;;;5110087;28;20198;-32
2022/10/28 02:18:44;;;;;;;6.60;3.17;;;19.20;99.90;;;;;;5110461;28;20205;-31
2022/10/28 02:21:26;;;;;;;8.65;3.25;;;19.20;99.90;;;;;;5107537;28;20281;-31
2022/10/28 02:24:07;;;;;;;6.78;3.13;;;19.20;99.90;;;;;;5110165;28;20285;-32
2022/10/28 02:26:39;;;;;;;7.38;3.78;;;19.20;99.90;;;;;;5110186;28;20295;-31
2022/10/28 02:29:19;;;;;;;8.47;3.10;;;19.10;99.90;;;;;;5110329;28;20530;-31
2022/10/28 02:31:52;;;;;;;7.27;3.67;;;19.10;99.90;;;;;;5109647;28;20271;-32
2022/10/28 02:34:28;;;;;;;7.88;3.03;;;19.10;99.90;;;;;;5109850;28;20174;-32
2022/10/28 02:36:59;;;;;;;8.67;3.53;;;19.10;99.90;;;;;;5109745;28;20247;-32
2022/10/28 02:39:38;;;;;;;10.02;3.55;;;19.10;99.90;;;;;;5109837;28;20228;-32
2022/10/28 02:42:09;;;;;;;9.63;3.80;;;19.00;99.90;;;;;;5109876;28;20548;-32
2022/10/28 02:44:44;;;;;;;8.30;3.30;;;19.00;99.90;;;;;;5109669;28;20228;-31
2022/10/28 02:47:18;;;;;;;8.17;3.23;;;19.00;99.90;;;;;;5109596;28;20201;-32
2022/10/28 02:49:50;;;;;;;10.23;3.73;;;19.00;99.90;;;;;;5109384;28;20217;-32
2022/10/28 02:52:20;;;;;;;11.93;4.18;;;19.00;99.90;;;;;;5109559;28;20222;-31
2022/10/28 02:54:57;;;;;;;9.77;3.50;;;18.90;99.90;;;;;;5109356;28;20702;-31
2022/10/28 02:57:31;;;;;;;7.25;3.70;;;18.90;99.90;;;;;;5109560;28;20198;-31
2022/10/28 03:00:03;;;;;;;10.48;3.42;;;18.80;99.90;;;;;;5109743;28;20178;-31
2022/10/28 03:02:31;;;;;;;7.87;3.43;;;18.80;99.90;;;;;;5109615;28;20229;-31
2022/10/28 03:04:58;;;;;;;8.43;3.63;;;18.80;99.90;;;;;;5109394;28;20633;-32
2022/10/28 03:07:27;;;;;;;6.53;3.57;;;18.70;99.90;;;;;;5109332;28;20208;-32
2022/10/28 03:09:54;;;;;;;6.95;3.60;;;18.70;99.90;;;;;;5109127;28;20226;-31
2022/10/28 03:12:27;;;;;;;6.65;3.42;;;18.70;99.90;;;;;;5108916;28;20229;-32
2022/10/28 03:14:54;;;;;;;10.95;3.95;;;18.60;99.90;;;;;;5109179;28;20208;-31
2022/10/28 03:17:21;;;;;;;9.25;3.70;;;18.60;99.90;;;;;;5109226;28;20211;-31
2022/10/28 03:19:48;;;;;;;7.57;3.70;;;18.60;99.90;;;;;;5108019;28;20229;-31
2022/10/28 03:22:15;;;;;;;10.73;3.63;;;18.60;99.90;;;;;;5107785;28;20228;-32
2022/10/28 03:24:42;;;;;;;6.47;3.87;;;18.60;99.90;;;;;;5109041;28;20198;-32
2022/10/28 03:27:11;;;;;;;8.75;3.40;;;18.50;99.90;;;;;;5109015;28;20194;-32
2022/10/28 03:29:41;;;;;;;7.13;3.67;;;18.50;99.90;;;;;;5109054;28;20206;-31
2022/10/28 03:32:12;;;;;;;7.93;3.77;;;18.50;99.90;;;;;;5108999;28;20210;-32
2022/10/28 03:34:41;;;;;;;9.23;4.23;;;18.40;99.90;;;;;;5108066;28;20236;-32
2022/10/28 03:37:09;;;;;;;10.00;3.90;;;18.40;99.90;;;;;;5107814;28;20267;-32
2022/10/28 03:39:36;;;;;;;7.97;3.97;;;18.40;99.90;;;;;;5109029;28;20202;-32
2022/10/28 03:42:03;;;;;;;5.30;3.28;;;18.40;99.90;;;;;;5109401;28;20568;-32
2022/10/28 03:44:32;;;;;;;6.67;3.70;;;18.40;99.90;;;;;;5109470;28;20206;-32
2022/10/28 03:46:59;;;;;;;8.10;3.77;;;18.30;99.90;;;;;;5109527;28;20626;-31
2022/10/28 03:49:26;;;;;;;7.78;3.70;;;18.30;99.90;;;;;;5107446;28;20676;-32
2022/10/28 03:51:54;;;;;;;11.27;4.18;;;18.30;99.90;;;;;;5109034;28;20224;-31
2022/10/28 03:54:21;;;;;;;10.25;3.60;;;18.30;99.90;;;;;;5108710;28;20206;-32
2022/10/28 03:56:48;;;;;;;7.22;3.60;;;18.20;99.90;;;;;;5108786;28;20289;-31
2022/10/28 03:59:15;;;;;;;9.90;3.87;;;18.20;99.90;;;;;;5108830;28;20297;-31
2022/10/28 04:01:48;;;;;;;8.15;3.95;;;18.20;99.90;;;;;;5109582;28;20210;-34
2022/10/28 04:04:16;;;;;;;10.33;3.90;;;18.20;99.90;;;;;;5112812;28;20255;-34
2022/10/28 04:06:43;;;;;;;10.98;4.00;;;18.10;99.90;;;;;;5113316;28;20226;-33
2022/10/28 04:09:12;;;;;;;9.00;4.40;;;18.10;99.90;;;;;;5112761;28;20194;-34
2022/10/28 04:11:42;;;;;;;9.93;3.70;;;18.10;99.90;;;;;;5112672;28;20229;-34
2022/10/28 04:14:09;;;;;;;6.13;3.90;;;18.10;99.90;;;;;;5111149;28;20636;-33
2022/10/28 04:16:36;;;;;;;15.63;4.40;;;18.10;99.90;;;;;;5112728;28;20267;-31
2022/10/28 04:19:03;;;;;;;9.97;4.53;;;18.00;99.90;;;;;;5112289;28;20225;-32
2022/10/28 04:21:30;;;;;;;7.35;4.03;;;18.00;99.90;;;;;;5110843;28;20321;-32
2022/10/28 04:23:58;;;;;;;10.43;4.50;;;18.00;99.90;;;;;;5110997;28;20201;-31
2022/10/28 04:26:27;;;;;;;6.93;3.75;;;18.00;99.90;;;;;;5110784;28;20294;-31
2022/10/28 04:28:56;;;;;;;8.33;3.93;;;18.00;99.90;;;;;;5112363;28;20632;-32
2022/10/28 04:31:23;;;;;;;8.97;3.87;;;17.90;99.90;;;;;;5112240;28;20305;-31
2022/10/28 04:33:50;;;;;;;7.57;4.10;;;17.90;99.90;;;;;;5112801;28;20218;-32
2022/10/28 04:36:18;;;;;;;10.90;4.40;;;17.90;99.90;;;;;;5111920;28;20259;-32
2022/10/28 04:38:45;;;;;;;9.03;3.93;;;17.90;99.90;;;;;;5111988;28;20205;-32
2022/10/28 04:41:13;;;;;;;11.17;4.27;;;17.80;99.90;;;;;;5111987;28;20198;-31
2022/10/28 04:43:40;;;;;;;9.03;4.50;;;17.80;99.90;;;;;;5111851;28;20198;-31
2022/10/28 04:46:08;;;;;;;10.30;4.47;;;17.80;99.90;;;;;;5110461;28;20202;-32
2022/10/28 04:48:35;;;;;;;11.03;4.00;;;17.80;99.90;;;;;;5111723;28;20232;-32
2022/10/28 04:51:02;;;;;;;8.93;4.37;;;17.80;99.90;;;;;;5111597;28;20745;-31
2022/10/28 04:53:32;;;;;;;12.53;3.83;;;17.80;99.90;;;;;;5110568;28;20262;-31
2022/10/28 04:56:01;;;;;;;13.00;3.80;;;17.80;99.90;;;;;;5111838;28;20218;-31
2022/10/28 04:58:28;;;;;;;11.00;4.27;;;17.80;99.90;;;;;;5112044;28;20239;-32
2022/10/28 05:00:55;;;;;;;15.50;4.73;;;17.80;99.90;;;;;;5111632;28;20202;-31
2022/10/28 05:03:25;;;;;;;13.50;4.57;;;17.80;99.90;;;;;;5111554;28;20267;-31
2022/10/28 05:05:55;;;;;;;10.73;5.17;;;17.80;99.90;;;;;;5111505;28;20193;-30
2022/10/28 05:08:22;;;;;;;11.18;4.30;;;17.80;99.90;;;;;;5111395;28;20739;-31
2022/10/28 05:10:51;;;;;;;10.33;4.30;;;17.80;99.90;;;;;;5111175;28;20691;-30
2022/10/28 05:13:19;;;;;;;11.53;5.57;;;17.80;99.90;;;;;;5109877;28;20234;-31
2022/10/28 05:15:49;;;;;;;11.60;4.90;;;17.80;99.90;;;;;;5111458;28;20660;-32
2022/10/28 05:18:18;;;;;;;10.90;4.50;;;17.80;99.90;;;;;;5111106;28;20214;-31
2022/10/28 05:20:45;;;;;;;9.73;3.80;;;17.80;99.90;;;;;;5111339;28;20702;-31
2022/10/28 05:23:12;;;;;;;6.43;4.10;;;17.80;99.90;;;;;;5111160;28;20218;-32
2022/10/28 05:25:41;;;;;;;12.07;4.10;;;17.80;99.90;;;;;;5111327;28;20289;-31
2022/10/28 05:28:08;;;;;;;6.90;3.93;;;17.80;99.90;;;;;;5110942;28;20243;-32
2022/10/28 05:30:36;;;;;;;11.10;4.10;;;17.80;99.90;;;;;;5110928;28;20774;-32
2022/10/28 05:33:03;;;;;;;10.87;4.80;;;17.80;99.90;;;;;;5110876;28;20206;-31
2022/10/28 05:35:31;;;;;;;17.50;5.40;;;17.80;99.90;;;;;;5110943;28;20657;-31
2022/10/28 05:37:58;;;;;;;7.03;4.57;;;17.80;99.90;;;;;;5111169;28;20638;-32
2022/10/28 05:40:25;;;;;;;13.27;4.77;;;17.80;99.90;;;;;;5109584;28;20289;-32
2022/10/28 05:42:52;;;;;;;12.00;4.97;;;17.80;99.90;;;;;;5111079;28;20285;-32
2022/10/28 05:45:20;;;;;;;12.57;4.53;;;17.80;99.90;;;;;;5110832;28;20675;-31
2022/10/28 05:47:47;;;;;;;11.77;4.25;;;17.80;99.90;;;;;;5110559;28;20210;-32
2022/10/28 05:50:17;;;;;;;11.60;4.30;;;17.80;99.90;;;;;;5110618;28;20302;-32
2022/10/28 05:53:03;;;;;;;12.97;4.60;;;17.90;99.90;;;;;;5109134;28;20242;-32
2022/10/28 05:55:34;;;;;;;12.13;4.53;;;17.90;99.90;;;;;;5110260;28;20213;-32
2022/10/28 05:58:02;;;;;;;10.57;4.93;;;17.90;99.90;;;;;;5109426;28;20267;-32
2022/10/28 06:00:31;;;;;;;12.50;4.93;;;17.90;99.90;;;;;;5110448;28;20206;-32
2022/10/28 06:03:10;;;;;;;15.97;4.23;;;17.90;99.90;;;;;;5110249;28;20285;-32
2022/10/28 06:05:44;;;;;;;8.33;3.93;;;17.90;99.90;;;;;;5110389;28;20259;-31
2022/10/28 06:08:12;;;;;;;10.90;4.13;;;17.90;99.90;;;;;;5109485;28;20276;-30
2022/10/28 06:10:40;;;;;;;10.30;4.20;;;17.90;99.90;;;;;;5110051;28;20221;-31
2022/10/28 06:13:10;;;;;;;10.30;3.83;;;17.90;99.90;;;;;;5110018;28;20214;-31
2022/10/28 06:15:37;;;;;;;13.20;4.30;;;17.90;99.90;;;;;;5110013;28;20313;-31
2022/10/28 06:18:05;;;;;;;10.07;4.33;;;18.00;99.90;;;;;;5110455;28;20182;-31
2022/10/28 06:20:32;;;;;;;10.93;4.53;;;18.00;99.90;;;;;;5109785;28;20230;-33
2022/10/28 06:23:01;;;;;;;13.03;4.40;;;18.00;99.90;;;;;;5109756;28;20282;-33
2022/10/28 06:25:28;;;;;;;10.77;4.63;;;18.00;99.90;;;;;;5107985;28;20197;-32
2022/10/28 06:28:01;;;;;;;10.50;4.60;;;18.00;99.90;;;;;;5109963;28;20199;-32
2022/10/28 06:30:28;;;;;;;11.05;4.35;;;18.00;99.90;;;;;;5109796;28;20301;-32
2022/10/28 06:32:56;;;;;;;11.45;4.57;;;18.00;99.90;;;;;;5109580;28;20724;-31
2022/10/28 06:35:23;;;;;;;11.38;4.80;;;18.00;99.90;;;;;;5109475;28;20737;-31
2022/10/28 06:37:55;;;;;;;14.63;4.60;;;18.10;99.90;;;;;;5109739;28;20198;-31
2022/10/28 06:40:24;;;;;;;10.83;4.53;;;18.10;99.90;;;;;;5109440;28;20555;-31
2022/10/28 06:43:00;;;;;;;14.10;4.73;;;18.10;99.90;;;;;;5109398;28;20203;-30
2022/10/28 06:45:28;;;;;;;11.50;4.63;;;18.10;99.90;;;;;;5109616;28;20254;-32
2022/10/28 06:47:59;;;;;;;10.43;4.47;;;18.10;99.90;;;;;;5109465;28;20383;-31
2022/10/28 06:50:28;;;;;;;10.40;4.90;;;18.10;99.90;;;;;;5109274;28;20214;-31
2022/10/28 06:52:56;;;;;;;13.70;4.83;;;18.10;99.90;;;;;;5109211;28;20249;-30
2022/10/28 06:55:29;;;;;;;10.10;4.00;;;18.10;99.90;;;;;;5109093;28;20198;-31
2022/10/28 06:58:00;;;;;;;12.07;4.22;;;18.20;99.90;;;;;;5109190;28;20190;-31
2022/10/28 07:00:32;;;;;;;6.90;4.15;;;18.20;99.90;;;;;;5109216;28;20187;-31
2022/10/28 07:02:59;;;;;;;10.35;4.28;;;18.20;99.90;;;;;;5109153;28;20549;-32
2022/10/28 07:05:27;;;;;;;10.18;4.28;;;18.20;99.90;;;;;;5109468;28;20225;-31
2022/10/28 07:07:56;;;;;;;11.23;4.83;;;18.30;99.90;;;;;;5109179;28;20700;-32
2022/10/28 07:10:24;;;;;;;12.13;4.77;;;18.30;99.90;;;;;;5109267;28;20230;-31
2022/10/28 07:12:52;;;;;;;11.03;4.80;;;18.30;99.90;;;;;;5108681;28;20275;-32
2022/10/28 07:15:22;;;;;;;9.77;4.10;;;18.40;99.90;;;;;;5109034;28;20198;-32
2022/10/28 07:17:53;;;;;;;13.87;4.10;;;18.40;99.90;;;;;;5109113;28;20299;-31
2022/10/28 07:20:21;;;;;;;10.13;4.67;;;18.40;99.90;;;;;;5109202;28;20222;-31
2022/10/28 07:22:58;;;;;;;10.93;4.30;;;18.40;99.90;;;;;;5107567;28;20456;-31
2022/10/28 07:25:27;;;;;;;11.40;3.90;;;18.50;99.90;;;;;;5109073;28;20209;-31
2022/10/28 07:27:56;;;;;;;12.70;4.40;;;18.50;99.90;;;;;;5107644;28;20198;-31
2022/10/28 07:30:24;;;;;;;9.97;4.50;;;18.60;99.90;;;;;;5107646;28;20240;-31
2022/10/28 07:32:54;;;;;;;8.30;4.27;;;18.60;99.90;;;;;;5109259;28;20313;-31
2022/10/28 07:35:21;;;;;;;9.97;4.50;;;18.70;99.90;;;;;;5108742;28;20212;-30
2022/10/28 07:37:51;;;;;;;11.77;4.43;;;18.70;99.90;;;;;;5112761;28;20293;-31
2022/10/28 07:40:20;;;;;;;11.37;4.50;;;18.80;99.90;;;;;;5113041;28;20202;-31
2022/10/28 07:42:47;;;;;;;9.40;4.17;;;18.80;99.90;;;;;;5112557;28;20248;-31
2022/10/28 07:45:15;;;;;;;7.57;4.07;;;18.90;99.90;;;;;;5111708;28;20668;-31
2022/10/28 07:47:45;;;;;;;12.20;5.05;;;19.00;99.90;;;;;;5112639;28;20683;-31
2022/10/28 07:50:12;;;;;;;8.63;4.67;;;19.00;99.90;;;;;;5113134;28;20182;-31
2022/10/28 07:52:39;;;;;;;10.57;4.95;;;19.10;99.90;;;;;;5111495;28;20712;-30
2022/10/28 07:55:07;;;;;;;8.90;4.35;;;19.10;99.90;;;;;;5112775;28;20210;-30
2022/10/28 07:57:34;;;;;;;12.30;5.03;;;19.20;99.90;;;;;;5112555;28;20281;-30
2022/10/28 08:00:03;;;;;;;9.20;4.10;;;19.30;99.90;;;;;;5112972;28;20202;-31
2022/10/28 08:02:33;;;;;;;9.65;3.90;;;19.40;99.90;;;;;;5112316;28;20210;-31
2022/10/28 08:05:02;;;;;;;12.60;4.57;;;19.40;99.90;;;;;;5112507;28;20198;-30
2022/10/28 08:07:30;;;;;;;12.90;4.43;;;19.50;99.90;;;;;;5111244;28;20198;-32
2022/10/28 08:10:04;;;;;;;16.80;4.77;;;19.50;99.90;;;;;;5112296;28;20252;-31
2022/10/28 08:12:31;;;;;;;14.52;5.10;;;19.60;99.90;;;;;;5112261;28;20309;-32
2022/10/28 08:14:58;;;;;;;12.05;4.60;;;19.70;99.90;;;;;;5112614;28;20641;-32
2022/10/28 08:17:25;;;;;;;10.50;4.93;;;19.70;99.90;;;;;;5112792;28;20210;-32
2022/10/28 08:19:52;;;;;;;15.70;5.18;;;19.70;99.90;;;;;;5112359;28;20222;-31
2022/10/28 08:22:19;;;;;;;8.43;4.28;;;19.80;99.90;;;;;;5111931;28;20203;-31
2022/10/28 08:24:47;;;;;;;11.27;4.82;;;19.90;99.90;;;;;;5112342;28;20280;-30
2022/10/28 08:27:14;;;;;;;11.13;5.22;;;19.90;99.90;;;;;;5112259;28;20210;-30
2022/10/28 08:29:43;;;;;;;11.27;4.43;;;20.00;99.90;;;;;;5111958;28;20201;-31
2022/10/28 08:32:10;;;;;;;9.30;4.70;;;20.00;99.90;;;;;;5093541;28;20640;-31
2022/10/28 08:34:37;;;;;;;9.00;4.15;;;20.10;99.90;;;;;;5110682;28;20301;-31
2022/10/28 08:37:09;;;;;;;12.18;4.22;;;20.20;99.90;;;;;;5111458;28;20195;-31
2022/10/28 08:39:39;;;;;;;11.57;4.45;;;20.20;99.90;;;;;;5112245;28;20195;-32
2022/10/28 08:42:26;;;;;;;10.23;4.80;;;20.30;99.90;;;;;;5110410;28;20203;-32
2022/10/28 08:45:29;;;;;;;10.43;4.88;;;20.30;99.90;;;;;;5111526;28;20309;-32
2022/10/28 08:48:05;;;;;;;9.50;4.75;;;20.40;99.90;;;;;;5106278;28;20734;-31
2022/10/28 08:50:45;;;;;;;9.10;4.47;;;20.40;99.90;;;;;;5110261;28;20255;-33
2022/10/28 08:53:20;;;;;;;11.73;4.57;;;20.50;99.90;;;;;;5111414;28;20719;-32
2022/10/28 08:55:52;;;;;;;11.45;4.22;;;20.50;99.90;;;;;;5111602;28;20206;-32
2022/10/28 08:58:32;;;;;;;12.07;4.90;;;20.60;99.90;;;;;;5111777;28;20190;-33
2022/10/28 09:00:59;;;;;;;9.88;5.15;;;20.60;99.90;;;;;;5111370;28;20198;-32
2022/10/28 09:03:36;;;;;;;13.07;4.30;;;20.70;99.90;;;;;;5111348;28;20214;-32
2022/10/28 09:06:11;;;;;;;12.55;4.72;;;20.70;99.90;;;;;;5111322;28;20208;-32
2022/10/28 09:08:44;;;;;;;15.68;4.32;;;20.70;99.90;;;;;;5111656;28;20200;-32
2022/10/28 09:11:26;;;;;;;8.80;4.43;;;20.80;99.90;;;;;;5111884;28;20210;-33
2022/10/28 09:14:12;;;;;;;8.82;4.50;;;20.80;99.90;;;;;;5111287;28;20194;-31
2022/10/28 09:16:46;;;;;;;10.90;4.82;;;20.80;99.90;;;;;;5111475;28;20222;-32
2022/10/28 09:19:43;;;;;;;14.88;4.30;;;20.80;99.90;;;;;;5110815;28;20283;-32
2022/10/28 09:22:22;;;;;;;9.93;4.30;;;20.90;99.90;;;;;;5106103;28;20297;-32
2022/10/28 09:25:05;;;;;;;14.77;5.00;;;20.90;99.90;;;;;;5110991;28;20202;-31
2022/10/28 09:28:02;;;;;;;11.00;4.13;;;20.90;99.90;;;;;;5111478;28;20255;-32
2022/10/28 09:30:38;;;;;;;6.85;4.05;;;21.00;99.90;;;;;;5110696;28;20593;-32
2022/10/28 09:33:36;;;;;;;10.75;4.35;;;21.00;99.90;;;;;;5110943;28;20233;-31
2022/10/28 09:36:10;;;;;;;11.15;4.25;;;21.10;99.90;;;;;;5110309;28;20198;-33
2022/10/28 09:38:37;;;;;;;10.43;4.38;;;21.10;99.90;;;;;;5110530;28;20736;-31
2022/10/28 09:41:24;;;;;;;11.93;4.35;;;21.10;99.90;;;;;;5111134;28;20298;-31
2022/10/28 09:44:06;;;;;;;13.02;4.30;;;21.20;99.90;;;;;;5110387;28;20668;-32
2022/10/28 09:46:34;;;;;;;13.40;4.47;;;21.20;99.90;;;;;;5110241;28;20199;-31
2022/10/28 09:49:12;;;;;;;11.93;4.50;;;21.30;99.90;;;;;;5110319;28;20222;-32
2022/10/28 09:52:20;;;;;;;9.00;3.85;;;21.30;99.90;;;;;;5110210;28;20274;-33
2022/10/28 09:54:53;;;;;;;9.32;3.90;;;21.40;99.90;;;;;;5110157;28;20321;-32
2022/10/28 09:57:22;;;;;;;12.10;4.15;;;21.40;99.90;;;;;;5110015;28;20676;-31
2022/10/28 09:59:50;;;;;;;11.63;4.15;;;21.50;99.90;;;;;;5107874;28;20230;-31
2022/10/28 10:02:41;;;;;;;10.20;4.13;;;21.50;99.90;;;;;;5109615;28;20213;-31
2022/10/28 10:05:15;;;;;;;11.02;4.05;;;21.60;99.90;;;;;;5110015;28;20198;-32
2022/10/28 10:08:03;;;;;;;9.80;3.92;;;21.70;99.90;;;;;;5109639;28;20626;-32
2022/10/28 10:10:53;;;;;;;11.20;3.88;;;21.70;99.90;;;;;;5109631;28;20195;-32
2022/10/28 10:13:40;;;;;;;10.45;4.05;;;21.80;99.90;;;;;;5109436;28;20198;-32
2022/10/28 10:16:39;;;;;;;11.02;4.47;;;21.80;99.90;;;;;;5109732;28;20190;-32
2022/10/28 10:19:09;;;;;;;15.38;4.15;;;21.90;99.90;;;;;;5107691;28;20234;-32
2022/10/28 10:21:42;;;;;;;10.73;4.15;;;22.00;99.90;;;;;;5109558;28;20206;-32
2022/10/28 10:24:27;;;;;;;11.55;3.95;;;22.00;99.90;;;;;;5109273;28;20652;-32
2022/10/28 10:26:56;;;;;;;11.88;3.75;;;22.10;99.90;;;;;;5109520;28;20234;-31
2022/10/28 10:29:24;;;;;;;12.57;3.75;;;22.20;99.90;;;;;;5108004;28;20966;-33
2022/10/28 10:32:32;;;;;;;10.82;3.22;;;22.30;99.90;;;;;;5109630;28;20244;-32
2022/10/28 10:35:05;;;;;;;14.88;3.78;;;22.30;99.90;;;;;;5109034;28;20198;-32
2022/10/28 10:37:34;;;;;;;13.27;4.25;;;22.40;99.90;;;;;;5108996;28;20258;-30
2022/10/28 10:40:04;;;;;;;11.70;4.45;;;22.40;99.90;;;;;;5109014;28;20641;-31
2022/10/28 10:42:32;;;;;;;9.35;3.60;;;22.50;99.90;;;;;;5109527;28;20297;-32
2022/10/28 10:45:15;;;;;;;9.75;3.50;;;22.50;99.90;;;;;;5108032;28;20243;-32
2022/10/28 10:47:42;;;;;;;12.30;3.55;;;22.60;99.90;;;;;;5109563;28;20239;-33
2022/10/28 10:50:32;;;;;;;9.60;4.55;;;22.70;99.90;;;;;;5108645;28;20210;-32
2022/10/28 10:53:00;;;;;;;14.25;4.40;;;22.80;99.90;;;;;;5108667;28;20205;-32
2022/10/28 10:55:31;;;;;;;17.35;4.40;;;22.80;99.90;;;;;;5109149;28;20194;-32
2022/10/28 10:57:59;;;;;;;13.55;3.58;;;22.90;99.90;;;;;;5108825;28;20251;-31
2022/10/28 11:00:36;;;;;;;16.77;4.28;;;23.00;99.90;;;;;;5108230;28;20198;-33
2022/10/28 11:03:35;;;;;;;17.42;3.90;;;23.00;99.90;;;;;;5108572;28;20231;-31
2022/10/28 11:06:06;;;;;;;10.38;3.40;;;23.10;99.90;;;;;;5108366;28;20647;-31
2022/10/28 11:08:59;;;;;;;8.85;3.60;;;23.10;99.90;;;;;;5108893;28;20262;-32
2022/10/28 11:11:39;;;;;;;10.20;3.40;;;23.10;99.90;;;;;;5108388;28;20225;-32
2022/10/28 11:14:09;;;;;;;9.25;3.63;;;23.20;99.90;;;;;;5108745;28;20226;-32
2022/10/28 11:16:46;;;;;;;15.15;4.03;;;23.30;99.90;;;;;;5108438;28;20202;-32
2022/10/28 11:19:22;;;;;;;10.88;3.35;;;23.30;99.90;;;;;;5108587;28;20261;-31
2022/10/28 11:21:53;;;;;;;13.85;3.33;;;23.40;99.90;;;;;;5108740;28;20668;-32
2022/10/28 11:24:20;;;;;;;13.20;3.33;;;23.50;99.90;;;;;;5107261;28;20309;-31
2022/10/28 11:27:00;;;;;;;10.98;3.72;;;23.50;99.90;;;;;;5108509;28;20210;-31
2022/10/28 11:29:28;;;;;;;11.10;3.88;;;23.60;99.90;;;;;;5106904;28;20289;-32
2022/10/28 11:32:24;;;;;;;9.82;3.55;;;23.60;99.90;;;;;;5108377;28;20292;-32
2022/10/28 11:35:02;;;;;;;15.18;3.88;;;23.70;99.90;;;;;;5108516;28;20190;-33
2022/10/28 11:37:59;;;;;;;16.15;4.07;;;23.80;99.90;;;;;;5108799;28;20229;-31
2022/10/28 11:41:10;;;;;;;9.82;3.60;;;23.80;99.90;;;;;;5106827;28;20186;-32
2022/10/28 11:43:46;;;;;;;8.93;3.60;;;23.80;99.90;;;;;;5084589;28;20522;-33
2022/10/28 11:46:45;;;;;;;10.50;3.45;;;23.80;99.90;;;;;;5108663;28;20188;-32
2022/10/28 11:49:37;;;;;;;11.18;3.58;;;23.80;99.90;;;;;;5108544;28;20439;-32
2022/10/28 11:52:28;;;;;;;12.15;3.58;;;23.80;99.90;;;;;;5108255;28;20194;-31
2022/10/28 11:55:36;;;;;;;12.55;3.47;;;23.80;99.90;;;;;;5108604;28;20179;-33
2022/10/28 11:58:33;;;;;;;12.57;3.42;;;23.80;99.90;;;;;;5085259;28;20474;-33
2022/10/28 12:01:18;;;;;;;14.75;3.85;;;23.80;99.90;;;;;;5069151;28;20298;-33
2022/10/28 12:03:48;;;;;;;12.40;4.30;;;23.80;99.90;;;;;;5104803;28;20599;-32
2022/10/28 12:06:21;;;;;;;9.57;3.50;;;23.80;99.90;;;;;;5108681;28;20190;-33
2022/10/28 12:09:17;;;;;;;12.15;3.95;;;23.90;99.90;;;;;;5108527;28;20690;-32
2022/10/28 12:12:05;;;;;;;9.15;3.70;;;24.00;99.90;;;;;;5108555;28;20225;-33
2022/10/28 12:14:50;;;;;;;13.43;3.67;;;24.00;99.90;;;;;;5108074;28;20590;-33
2022/10/28 12:17:37;;;;;;;17.55;3.97;;;24.00;99.90;;;;;;5108128;28;20183;-33
2022/10/28 12:20:16;;;;;;;13.85;3.70;;;24.00;99.90;;;;;;5108368;28;20279;-33
2022/10/28 12:22:59;;;;;;;23.67;5.43;;;24.10;99.90;;;;;;5110097;28;20202;-32
2022/10/28 12:25:34;;;;;;;11.32;3.20;;;24.10;99.90;;;;;;5112403;28;20201;-32
2022/10/28 12:28:16;;;;;;;14.02;3.95;;;24.20;99.90;;;;;;5112084;27;20314;-33
2022/10/28 12:30:50;;;;;;;20.38;4.35;;;24.20;99.90;;;;;;5112067;28;20185;-32
2022/10/28 12:33:41;;;;;;;13.65;4.32;;;24.20;99.90;;;;;;5112090;28;20263;-33
2022/10/28 12:36:08;;;;;;;18.25;4.30;;;24.20;99.90;;;;;;5110385;28;20656;-32
2022/10/28 12:38:44;;;;;;;11.98;4.00;;;24.20;99.90;;;;;;5111865;28;20199;-32
2022/10/28 12:41:17;;;;;;;12.95;3.55;;;24.20;99.90;;;;;;5111924;28;20178;-33
2022/10/28 12:43:50;;;;;;;8.77;3.45;;;24.20;99.90;;;;;;5111527;28;20488;-32
2022/10/28 12:46:29;;;;;;;11.10;3.42;;;24.20;99.90;;;;;;5111672;28;20210;-32
2022/10/28 12:49:09;;;;;;;13.85;3.78;;;24.30;99.90;;;;;;5111993;28;20235;-32
2022/10/28 12:51:39;;;;;;;8.50;3.13;;;24.30;99.90;;;;;;5110366;28;20195;-33
2022/10/28 12:54:35;;;;;;;11.25;3.20;;;24.30;99.90;;;;;;5111257;28;20255;-32
2022/10/28 12:57:14;;;;;;;12.68;4.00;;;24.40;99.90;;;;;;5111478;28;20616;-33
2022/10/28 12:59:51;;;;;;;13.82;3.75;;;24.40;99.90;;;;;;5111274;28;20258;-32
2022/10/28 13:02:36;;;;;;;11.02;3.42;;;24.30;99.90;;;;;;5110740;28;20671;-31
2022/10/28 13:05:14;;;;;;;12.10;3.20;;;24.30;99.90;;;;;;5110831;28;20186;-33
2022/10/28 13:07:56;;;;;;;11.75;3.90;;;24.30;99.90;;;;;;5110812;28;20189;-31
2022/10/28 13:10:42;;;;;;;13.50;3.10;;;24.30;99.90;;;;;;5111038;28;20711;-32
2022/10/28 13:13:20;;;;;;;13.43;3.10;;;24.30;99.90;;;;;;5110980;28;20233;-31
2022/10/28 13:16:08;;;;;;;5.15;2.60;;;24.30;99.90;;;;;;5110652;28;20565;-33
2022/10/28 13:19:23;;;;;;;11.88;2.75;;;24.30;99.90;;;;;;5110547;28;20317;-32